sensor_id;sensor_type;location;lat;lon;timestamp;P1;durP1;ratioP1;P2;durP2;ratioP2
51814;SDS011;37874;53.158;6.766;2022-11-11T00:01:00;3.13;;;1.20;;
51814;SDS011;37874;53.158;6.766;2022-11-11T00:03:25;2.95;;;1.25;;
51814;SDS011;37874;53.158;6.766;2022-11-11T00:05:51;3.55;;;1.30;;
51814;SDS011;37874;53.158;6.766;2022-11-11T00:08:17;4.20;;;1.60;;
51814;SDS011;37874;53.158;6.766;2022-11-11T00:10:42;3.67;;;1.40;;
51814;SDS011;37874;53.158;6.766;2022-11-11T00:13:08;3.30;;;1.30;;
51814;SDS011;37874;53.158;6.766;2022-11-11T00:15:35;4.05;;;1.10;;
51814;SDS011;37874;53.158;6.766;2022-11-11T00:18:03;3.00;;;1.17;;
51814;SDS011;37874;53.158;6.766;2022-11-11T00:20:52;2.88;;;1.13;;
51814;SDS011;37874;53.158;6.766;2022-11-11T00:23:37;4.20;;;1.37;;
51814;SDS011;37874;53.158;6.766;2022-11-11T00:26:21;2.85;;;1.20;;
51814;SDS011;37874;53.158;6.766;2022-11-11T00:28:50;3.92;;;1.20;;
51814;SDS011;37874;53.158;6.766;2022-11-11T00:31:16;5.28;;;1.52;;
51814;SDS011;37874;53.158;6.766;2022-11-11T00:33:41;2.60;;;1.10;;
51814;SDS011;37874;53.158;6.766;2022-11-11T00:36:07;4.80;;;1.20;;
51814;SDS011;37874;53.158;6.766;2022-11-11T00:38:33;4.15;;;1.60;;
51814;SDS011;37874;53.158;6.766;2022-11-11T00:41:11;3.90;;;1.75;;
51814;SDS011;37874;53.158;6.766;2022-11-11T00:43:38;2.90;;;1.33;;
51814;SDS011;37874;53.158;6.766;2022-11-11T00:46:04;2.15;;;1.02;;
51814;SDS011;37874;53.158;6.766;2022-11-11T00:48:49;4.27;;;1.30;;
51814;SDS011;37874;53.158;6.766;2022-11-11T00:51:33;3.78;;;1.20;;
51814;SDS011;37874;53.158;6.766;2022-11-11T00:53:59;3.38;;;1.33;;
51814;SDS011;37874;53.158;6.766;2022-11-11T00:56:24;3.53;;;1.48;;
51814;SDS011;37874;53.158;6.766;2022-11-11T00:58:51;3.42;;;1.30;;
51814;SDS011;37874;53.158;6.766;2022-11-11T01:01:17;3.58;;;1.30;;
51814;SDS011;37874;53.158;6.766;2022-11-11T01:03:42;3.20;;;1.50;;
51814;SDS011;37874;53.158;6.766;2022-11-11T01:06:09;3.70;;;1.27;;
51814;SDS011;37874;53.158;6.766;2022-11-11T01:08:37;5.60;;;1.40;;
51814;SDS011;37874;53.158;6.766;2022-11-11T01:11:03;3.30;;;1.30;;
51814;SDS011;37874;53.158;6.766;2022-11-11T01:13:35;4.28;;;1.55;;
51814;SDS011;37874;53.158;6.766;2022-11-11T01:16:05;3.30;;;1.27;;
51814;SDS011;37874;53.158;6.766;2022-11-11T01:18:32;3.80;;;1.60;;
51814;SDS011;37874;53.158;6.766;2022-11-11T01:23:29;3.38;;;1.30;;
51814;SDS011;37874;53.158;6.766;2022-11-11T01:26:04;3.55;;;1.80;;
51814;SDS011;37874;53.158;6.766;2022-11-11T01:31:00;3.58;;;1.48;;
51814;SDS011;37874;53.158;6.766;2022-11-11T01:33:28;3.88;;;1.65;;
51814;SDS011;37874;53.158;6.766;2022-11-11T01:35:53;3.65;;;1.40;;
51814;SDS011;37874;53.158;6.766;2022-11-11T01:38:19;3.10;;;1.30;;
51814;SDS011;37874;53.158;6.766;2022-11-11T01:40:45;4.10;;;1.40;;
51814;SDS011;37874;53.158;6.766;2022-11-11T01:43:19;3.55;;;1.35;;
51814;SDS011;37874;53.158;6.766;2022-11-11T01:45:49;1.98;;;1.08;;
51814;SDS011;37874;53.158;6.766;2022-11-11T01:48:23;3.17;;;1.52;;
51814;SDS011;37874;53.158;6.766;2022-11-11T01:51:27;3.45;;;1.35;;
51814;SDS011;37874;53.158;6.766;2022-11-11T01:54:07;3.65;;;1.45;;
51814;SDS011;37874;53.158;6.766;2022-11-11T01:56:39;6.05;;;2.08;;
51814;SDS011;37874;53.158;6.766;2022-11-11T01:59:08;5.57;;;2.25;;
51814;SDS011;37874;53.158;6.766;2022-11-11T02:01:37;5.38;;;1.60;;
51814;SDS011;37874;53.158;6.766;2022-11-11T02:04:03;4.32;;;1.23;;
51814;SDS011;37874;53.158;6.766;2022-11-11T02:06:51;2.88;;;1.20;;
51814;SDS011;37874;53.158;6.766;2022-11-11T02:09:19;3.35;;;1.63;;
51814;SDS011;37874;53.158;6.766;2022-11-11T02:11:47;4.68;;;1.42;;
51814;SDS011;37874;53.158;6.766;2022-11-11T02:14:33;2.83;;;1.10;;
51814;SDS011;37874;53.158;6.766;2022-11-11T02:17:10;3.33;;;1.58;;
51814;SDS011;37874;53.158;6.766;2022-11-11T02:25:12;3.33;;;1.35;;
51814;SDS011;37874;53.158;6.766;2022-11-11T02:27:42;3.40;;;1.30;;
51814;SDS011;37874;53.158;6.766;2022-11-11T02:30:10;5.20;;;1.73;;
51814;SDS011;37874;53.158;6.766;2022-11-11T02:32:44;3.42;;;1.42;;
51814;SDS011;37874;53.158;6.766;2022-11-11T02:35:15;3.22;;;1.23;;
51814;SDS011;37874;53.158;6.766;2022-11-11T02:37:48;4.03;;;1.42;;
51814;SDS011;37874;53.158;6.766;2022-11-11T02:40:17;5.82;;;1.65;;
51814;SDS011;37874;53.158;6.766;2022-11-11T02:42:54;3.22;;;1.20;;
51814;SDS011;37874;53.158;6.766;2022-11-11T02:45:20;5.05;;;1.52;;
51814;SDS011;37874;53.158;6.766;2022-11-11T02:47:46;4.47;;;1.63;;
51814;SDS011;37874;53.158;6.766;2022-11-11T02:50:11;4.15;;;1.42;;
51814;SDS011;37874;53.158;6.766;2022-11-11T02:52:37;3.88;;;1.67;;
51814;SDS011;37874;53.158;6.766;2022-11-11T02:55:02;3.40;;;1.33;;
51814;SDS011;37874;53.158;6.766;2022-11-11T02:57:28;5.10;;;1.90;;
51814;SDS011;37874;53.158;6.766;2022-11-11T02:59:55;3.45;;;1.38;;
51814;SDS011;37874;53.158;6.766;2022-11-11T03:02:22;3.67;;;1.50;;
51814;SDS011;37874;53.158;6.766;2022-11-11T03:04:51;3.00;;;1.67;;
51814;SDS011;37874;53.158;6.766;2022-11-11T03:07:22;2.78;;;1.40;;
51814;SDS011;37874;53.158;6.766;2022-11-11T03:09:49;3.22;;;1.63;;
51814;SDS011;37874;53.158;6.766;2022-11-11T03:12:15;3.78;;;1.77;;
51814;SDS011;37874;53.158;6.766;2022-11-11T03:14:41;3.78;;;1.60;;
51814;SDS011;37874;53.158;6.766;2022-11-11T03:17:07;4.22;;;1.80;;
51814;SDS011;37874;53.158;6.766;2022-11-11T03:19:52;3.88;;;2.00;;
51814;SDS011;37874;53.158;6.766;2022-11-11T03:22:37;3.95;;;1.60;;
51814;SDS011;37874;53.158;6.766;2022-11-11T03:25:03;4.43;;;1.70;;
51814;SDS011;37874;53.158;6.766;2022-11-11T03:27:48;4.60;;;1.83;;
51814;SDS011;37874;53.158;6.766;2022-11-11T03:30:13;3.00;;;1.60;;
51814;SDS011;37874;53.158;6.766;2022-11-11T03:32:39;3.13;;;1.75;;
51814;SDS011;37874;53.158;6.766;2022-11-11T03:35:04;3.65;;;1.80;;
51814;SDS011;37874;53.158;6.766;2022-11-11T03:37:30;5.03;;;1.88;;
51814;SDS011;37874;53.158;6.766;2022-11-11T03:40:14;5.18;;;2.28;;
51814;SDS011;37874;53.158;6.766;2022-11-11T03:42:40;3.85;;;1.88;;
51814;SDS011;37874;53.158;6.766;2022-11-11T03:45:08;5.65;;;2.58;;
51814;SDS011;37874;53.158;6.766;2022-11-11T03:47:33;4.47;;;2.28;;
51814;SDS011;37874;53.158;6.766;2022-11-11T03:49:59;5.28;;;2.47;;
51814;SDS011;37874;53.158;6.766;2022-11-11T03:52:24;5.57;;;2.75;;
51814;SDS011;37874;53.158;6.766;2022-11-11T03:54:50;3.05;;;1.80;;
51814;SDS011;37874;53.158;6.766;2022-11-11T03:57:17;4.93;;;1.85;;
51814;SDS011;37874;53.158;6.766;2022-11-11T03:59:55;4.72;;;2.40;;
51814;SDS011;37874;53.158;6.766;2022-11-11T04:02:20;3.35;;;1.92;;
51814;SDS011;37874;53.158;6.766;2022-11-11T04:05:05;4.20;;;2.60;;
51814;SDS011;37874;53.158;6.766;2022-11-11T04:07:49;4.15;;;1.88;;
51814;SDS011;37874;53.158;6.766;2022-11-11T04:10:34;3.90;;;2.20;;
51814;SDS011;37874;53.158;6.766;2022-11-11T04:13:00;3.22;;;2.00;;
51814;SDS011;37874;53.158;6.766;2022-11-11T04:15:44;3.15;;;1.90;;
51814;SDS011;37874;53.158;6.766;2022-11-11T04:18:28;4.27;;;2.27;;
51814;SDS011;37874;53.158;6.766;2022-11-11T04:21:13;6.43;;;3.35;;
51814;SDS011;37874;53.158;6.766;2022-11-11T04:23:57;4.00;;;2.50;;
51814;SDS011;37874;53.158;6.766;2022-11-11T04:26:23;6.63;;;2.60;;
51814;SDS011;37874;53.158;6.766;2022-11-11T04:28:48;4.07;;;2.28;;
51814;SDS011;37874;53.158;6.766;2022-11-11T04:31:33;4.40;;;2.50;;
51814;SDS011;37874;53.158;6.766;2022-11-11T04:33:58;5.68;;;2.58;;
51814;SDS011;37874;53.158;6.766;2022-11-11T04:36:24;6.13;;;2.65;;
51814;SDS011;37874;53.158;6.766;2022-11-11T04:38:50;7.25;;;3.00;;
51814;SDS011;37874;53.158;6.766;2022-11-11T04:41:34;4.28;;;2.45;;
51814;SDS011;37874;53.158;6.766;2022-11-11T04:44:00;5.55;;;2.38;;
51814;SDS011;37874;53.158;6.766;2022-11-11T04:46:44;3.88;;;2.28;;
51814;SDS011;37874;53.158;6.766;2022-11-11T04:49:09;5.13;;;2.60;;
51814;SDS011;37874;53.158;6.766;2022-11-11T04:51:35;3.78;;;2.15;;
51814;SDS011;37874;53.158;6.766;2022-11-11T04:54:30;3.08;;;2.00;;
51814;SDS011;37874;53.158;6.766;2022-11-11T04:57:15;5.25;;;2.25;;
51814;SDS011;37874;53.158;6.766;2022-11-11T04:59:41;4.45;;;2.33;;
51814;SDS011;37874;53.158;6.766;2022-11-11T05:02:06;4.80;;;2.42;;
51814;SDS011;37874;53.158;6.766;2022-11-11T05:04:51;5.45;;;3.20;;
51814;SDS011;37874;53.158;6.766;2022-11-11T05:07:16;4.97;;;2.88;;
51814;SDS011;37874;53.158;6.766;2022-11-11T05:10:11;4.32;;;2.30;;
51814;SDS011;37874;53.158;6.766;2022-11-11T05:12:36;3.83;;;2.03;;
51814;SDS011;37874;53.158;6.766;2022-11-11T05:15:02;4.75;;;2.40;;
51814;SDS011;37874;53.158;6.766;2022-11-11T05:17:46;3.25;;;2.10;;
51814;SDS011;37874;53.158;6.766;2022-11-11T05:20:31;3.95;;;2.50;;
51814;SDS011;37874;53.158;6.766;2022-11-11T05:23:15;5.05;;;2.35;;
51814;SDS011;37874;53.158;6.766;2022-11-11T05:25:41;5.53;;;2.10;;
51814;SDS011;37874;53.158;6.766;2022-11-11T05:28:06;3.67;;;2.20;;
51814;SDS011;37874;53.158;6.766;2022-11-11T05:30:32;4.93;;;2.50;;
51814;SDS011;37874;53.158;6.766;2022-11-11T05:32:58;3.15;;;2.13;;
51814;SDS011;37874;53.158;6.766;2022-11-11T05:35:24;6.85;;;3.28;;
51814;SDS011;37874;53.158;6.766;2022-11-11T05:37:49;4.63;;;2.88;;
51814;SDS011;37874;53.158;6.766;2022-11-11T05:40:34;4.90;;;2.50;;
51814;SDS011;37874;53.158;6.766;2022-11-11T05:42:59;6.20;;;3.38;;
51814;SDS011;37874;53.158;6.766;2022-11-11T05:45:25;5.80;;;2.95;;
51814;SDS011;37874;53.158;6.766;2022-11-11T05:47:50;4.70;;;2.40;;
51814;SDS011;37874;53.158;6.766;2022-11-11T05:50:16;3.60;;;2.63;;
51814;SDS011;37874;53.158;6.766;2022-11-11T05:52:46;4.40;;;2.53;;
51814;SDS011;37874;53.158;6.766;2022-11-11T05:55:13;4.82;;;2.83;;
51814;SDS011;37874;53.158;6.766;2022-11-11T05:57:38;6.20;;;2.97;;
51814;SDS011;37874;53.158;6.766;2022-11-11T06:00:04;3.90;;;2.28;;
51814;SDS011;37874;53.158;6.766;2022-11-11T06:02:30;4.47;;;2.28;;
51814;SDS011;37874;53.158;6.766;2022-11-11T06:04:55;7.88;;;3.47;;
51814;SDS011;37874;53.158;6.766;2022-11-11T06:07:21;3.65;;;2.30;;
51814;SDS011;37874;53.158;6.766;2022-11-11T06:09:47;4.20;;;2.08;;
51814;SDS011;37874;53.158;6.766;2022-11-11T06:12:12;4.00;;;2.10;;
51814;SDS011;37874;53.158;6.766;2022-11-11T06:14:38;6.13;;;2.63;;
51814;SDS011;37874;53.158;6.766;2022-11-11T06:17:03;5.53;;;2.70;;
51814;SDS011;37874;53.158;6.766;2022-11-11T06:19:29;3.25;;;2.10;;
51814;SDS011;37874;53.158;6.766;2022-11-11T06:21:54;4.13;;;2.50;;
51814;SDS011;37874;53.158;6.766;2022-11-11T06:24:24;5.05;;;2.67;;
51814;SDS011;37874;53.158;6.766;2022-11-11T06:26:50;4.25;;;2.33;;
51814;SDS011;37874;53.158;6.766;2022-11-11T06:29:16;6.35;;;3.00;;
51814;SDS011;37874;53.158;6.766;2022-11-11T06:31:41;10.98;;;3.08;;
51814;SDS011;37874;53.158;6.766;2022-11-11T06:34:07;4.15;;;2.25;;
51814;SDS011;37874;53.158;6.766;2022-11-11T06:36:33;5.88;;;3.03;;
51814;SDS011;37874;53.158;6.766;2022-11-11T06:38:58;4.07;;;2.63;;
51814;SDS011;37874;53.158;6.766;2022-11-11T06:41:24;6.28;;;3.40;;
51814;SDS011;37874;53.158;6.766;2022-11-11T06:43:49;4.55;;;2.35;;
51814;SDS011;37874;53.158;6.766;2022-11-11T06:46:22;4.35;;;3.10;;
51814;SDS011;37874;53.158;6.766;2022-11-11T06:48:49;5.72;;;2.80;;
51814;SDS011;37874;53.158;6.766;2022-11-11T06:51:15;4.80;;;2.47;;
51814;SDS011;37874;53.158;6.766;2022-11-11T06:53:41;5.00;;;2.80;;
51814;SDS011;37874;53.158;6.766;2022-11-11T06:56:07;5.25;;;2.42;;
51814;SDS011;37874;53.158;6.766;2022-11-11T06:58:33;4.35;;;2.47;;
51814;SDS011;37874;53.158;6.766;2022-11-11T07:01:02;4.70;;;2.53;;
51814;SDS011;37874;53.158;6.766;2022-11-11T07:03:31;5.00;;;2.03;;
51814;SDS011;37874;53.158;6.766;2022-11-11T07:05:58;4.15;;;2.35;;
51814;SDS011;37874;53.158;6.766;2022-11-11T07:08:25;4.75;;;2.67;;
51814;SDS011;37874;53.158;6.766;2022-11-11T07:10:51;5.43;;;2.97;;
51814;SDS011;37874;53.158;6.766;2022-11-11T07:13:16;4.20;;;2.45;;
51814;SDS011;37874;53.158;6.766;2022-11-11T07:15:42;6.57;;;2.90;;
51814;SDS011;37874;53.158;6.766;2022-11-11T07:18:08;6.80;;;3.00;;
51814;SDS011;37874;53.158;6.766;2022-11-11T07:20:35;5.07;;;2.60;;
51814;SDS011;37874;53.158;6.766;2022-11-11T07:23:01;3.63;;;2.58;;
51814;SDS011;37874;53.158;6.766;2022-11-11T07:25:28;4.13;;;2.17;;
51814;SDS011;37874;53.158;6.766;2022-11-11T07:27:53;4.45;;;2.33;;
51814;SDS011;37874;53.158;6.766;2022-11-11T07:30:19;4.68;;;2.97;;
51814;SDS011;37874;53.158;6.766;2022-11-11T07:32:45;4.57;;;2.50;;
51814;SDS011;37874;53.158;6.766;2022-11-11T07:35:12;7.40;;;2.85;;
51814;SDS011;37874;53.158;6.766;2022-11-11T07:37:38;4.80;;;3.13;;
51814;SDS011;37874;53.158;6.766;2022-11-11T07:40:05;4.97;;;2.58;;
51814;SDS011;37874;53.158;6.766;2022-11-11T07:42:34;4.18;;;2.80;;
51814;SDS011;37874;53.158;6.766;2022-11-11T07:45:01;5.40;;;2.70;;
51814;SDS011;37874;53.158;6.766;2022-11-11T07:47:28;4.32;;;2.42;;
51814;SDS011;37874;53.158;6.766;2022-11-11T07:49:53;4.82;;;2.90;;
51814;SDS011;37874;53.158;6.766;2022-11-11T07:52:19;5.75;;;3.63;;
51814;SDS011;37874;53.158;6.766;2022-11-11T07:54:47;6.38;;;3.53;;
51814;SDS011;37874;53.158;6.766;2022-11-11T07:57:13;5.75;;;2.97;;
51814;SDS011;37874;53.158;6.766;2022-11-11T07:59:39;7.03;;;3.50;;
51814;SDS011;37874;53.158;6.766;2022-11-11T08:02:07;5.47;;;3.15;;
51814;SDS011;37874;53.158;6.766;2022-11-11T08:04:34;8.40;;;3.80;;
51814;SDS011;37874;53.158;6.766;2022-11-11T08:07:00;4.85;;;2.90;;
51814;SDS011;37874;53.158;6.766;2022-11-11T08:09:26;6.72;;;3.35;;
51814;SDS011;37874;53.158;6.766;2022-11-11T08:11:51;4.75;;;3.10;;
51814;SDS011;37874;53.158;6.766;2022-11-11T08:14:35;6.03;;;3.03;;
51814;SDS011;37874;53.158;6.766;2022-11-11T08:17:01;5.25;;;3.42;;
51814;SDS011;37874;53.158;6.766;2022-11-11T08:19:26;6.47;;;3.00;;
51814;SDS011;37874;53.158;6.766;2022-11-11T08:21:52;4.60;;;2.95;;
51814;SDS011;37874;53.158;6.766;2022-11-11T08:24:17;6.97;;;3.13;;
51814;SDS011;37874;53.158;6.766;2022-11-11T08:26:44;6.63;;;3.03;;
51814;SDS011;37874;53.158;6.766;2022-11-11T08:29:09;6.28;;;3.67;;
51814;SDS011;37874;53.158;6.766;2022-11-11T08:31:35;4.90;;;3.53;;
51814;SDS011;37874;53.158;6.766;2022-11-11T08:34:03;5.93;;;3.47;;
51814;SDS011;37874;53.158;6.766;2022-11-11T08:36:29;5.97;;;3.22;;
51814;SDS011;37874;53.158;6.766;2022-11-11T08:38:55;8.10;;;3.35;;
51814;SDS011;37874;53.158;6.766;2022-11-11T08:41:20;7.47;;;2.80;;
51814;SDS011;37874;53.158;6.766;2022-11-11T08:43:51;4.72;;;3.00;;
51814;SDS011;37874;53.158;6.766;2022-11-11T08:46:19;5.38;;;2.88;;
51814;SDS011;37874;53.158;6.766;2022-11-11T08:48:46;5.07;;;2.80;;
51814;SDS011;37874;53.158;6.766;2022-11-11T08:51:13;8.38;;;3.40;;
51814;SDS011;37874;53.158;6.766;2022-11-11T08:53:39;5.68;;;3.13;;
51814;SDS011;37874;53.158;6.766;2022-11-11T08:56:04;6.65;;;3.17;;
51814;SDS011;37874;53.158;6.766;2022-11-11T08:58:31;6.22;;;3.20;;
51814;SDS011;37874;53.158;6.766;2022-11-11T09:00:56;4.93;;;2.80;;
51814;SDS011;37874;53.158;6.766;2022-11-11T09:03:22;4.60;;;2.85;;
51814;SDS011;37874;53.158;6.766;2022-11-11T09:05:48;5.80;;;3.70;;
51814;SDS011;37874;53.158;6.766;2022-11-11T09:08:14;6.88;;;3.50;;
51814;SDS011;37874;53.158;6.766;2022-11-11T09:10:39;5.18;;;2.70;;
51814;SDS011;37874;53.158;6.766;2022-11-11T09:13:05;3.90;;;2.55;;
51814;SDS011;37874;53.158;6.766;2022-11-11T09:15:31;4.90;;;3.00;;
51814;SDS011;37874;53.158;6.766;2022-11-11T09:17:57;5.18;;;2.70;;
51814;SDS011;37874;53.158;6.766;2022-11-11T09:20:23;6.88;;;2.63;;
51814;SDS011;37874;53.158;6.766;2022-11-11T09:22:49;7.22;;;3.35;;
51814;SDS011;37874;53.158;6.766;2022-11-11T09:25:15;6.10;;;3.10;;
51814;SDS011;37874;53.158;6.766;2022-11-11T09:27:41;4.65;;;2.40;;
51814;SDS011;37874;53.158;6.766;2022-11-11T09:30:08;5.13;;;2.65;;
51814;SDS011;37874;53.158;6.766;2022-11-11T09:32:35;5.82;;;2.80;;
51814;SDS011;37874;53.158;6.766;2022-11-11T09:35:01;4.13;;;2.45;;
51814;SDS011;37874;53.158;6.766;2022-11-11T09:37:28;5.05;;;2.60;;
51814;SDS011;37874;53.158;6.766;2022-11-11T09:39:54;5.90;;;2.72;;
51814;SDS011;37874;53.158;6.766;2022-11-11T09:50:17;5.60;;;2.60;;
51814;SDS011;37874;53.158;6.766;2022-11-11T09:58:11;4.72;;;2.50;;
51814;SDS011;37874;53.158;6.766;2022-11-11T10:00:41;5.07;;;2.50;;
51814;SDS011;37874;53.158;6.766;2022-11-11T10:03:20;4.45;;;3.00;;
51814;SDS011;37874;53.158;6.766;2022-11-11T10:08:39;4.47;;;2.60;;
51814;SDS011;37874;53.158;6.766;2022-11-11T10:11:42;5.70;;;2.72;;
51814;SDS011;37874;53.158;6.766;2022-11-11T10:14:15;4.90;;;2.45;;
51814;SDS011;37874;53.158;6.766;2022-11-11T10:25:05;4.32;;;2.83;;
51814;SDS011;37874;53.158;6.766;2022-11-11T10:27:45;4.22;;;2.33;;
51814;SDS011;37874;53.158;6.766;2022-11-11T10:30:15;4.55;;;2.50;;
51814;SDS011;37874;53.158;6.766;2022-11-11T10:32:48;5.18;;;3.05;;
51814;SDS011;37874;53.158;6.766;2022-11-11T10:35:28;5.38;;;2.70;;
51814;SDS011;37874;53.158;6.766;2022-11-11T10:38:00;7.45;;;2.42;;
51814;SDS011;37874;53.158;6.766;2022-11-11T10:40:48;4.63;;;2.50;;
51814;SDS011;37874;53.158;6.766;2022-11-11T10:43:22;5.15;;;3.25;;
51814;SDS011;37874;53.158;6.766;2022-11-11T10:48:22;6.10;;;2.90;;
51814;SDS011;37874;53.158;6.766;2022-11-11T10:51:02;3.60;;;2.55;;
51814;SDS011;37874;53.158;6.766;2022-11-11T10:58:57;3.15;;;2.22;;
51814;SDS011;37874;53.158;6.766;2022-11-11T11:01:34;4.82;;;2.47;;
51814;SDS011;37874;53.158;6.766;2022-11-11T11:06:41;4.15;;;2.40;;
51814;SDS011;37874;53.158;6.766;2022-11-11T11:09:13;4.10;;;2.33;;
51814;SDS011;37874;53.158;6.766;2022-11-11T11:11:55;3.75;;;2.17;;
51814;SDS011;37874;53.158;6.766;2022-11-11T11:14:29;5.75;;;2.30;;
51814;SDS011;37874;53.158;6.766;2022-11-11T11:16:59;6.28;;;3.13;;
51814;SDS011;37874;53.158;6.766;2022-11-11T11:19:32;5.80;;;2.67;;
51814;SDS011;37874;53.158;6.766;2022-11-11T11:21:59;4.90;;;2.80;;
51814;SDS011;37874;53.158;6.766;2022-11-11T11:26:57;6.00;;;2.97;;
51814;SDS011;37874;53.158;6.766;2022-11-11T11:32:13;4.82;;;3.17;;
51814;SDS011;37874;53.158;6.766;2022-11-11T11:34:49;6.05;;;3.35;;
51814;SDS011;37874;53.158;6.766;2022-11-11T11:37:16;3.75;;;2.78;;
51814;SDS011;37874;53.158;6.766;2022-11-11T11:39:43;4.07;;;2.40;;
51814;SDS011;37874;53.158;6.766;2022-11-11T11:42:25;3.80;;;2.40;;
51814;SDS011;37874;53.158;6.766;2022-11-11T11:44:54;4.55;;;2.50;;
51814;SDS011;37874;53.158;6.766;2022-11-11T11:47:41;4.75;;;2.58;;
51814;SDS011;37874;53.158;6.766;2022-11-11T11:50:12;4.63;;;2.58;;
51814;SDS011;37874;53.158;6.766;2022-11-11T11:52:54;5.13;;;3.30;;
51814;SDS011;37874;53.158;6.766;2022-11-11T12:17:47;3.90;;;2.60;;
51814;SDS011;37874;53.158;6.766;2022-11-11T12:23:32;5.07;;;2.60;;
51814;SDS011;37874;53.158;6.766;2022-11-11T12:26:21;4.78;;;2.80;;
51814;SDS011;37874;53.158;6.766;2022-11-11T12:29:05;5.68;;;2.85;;
51814;SDS011;37874;53.158;6.766;2022-11-11T12:31:53;3.65;;;2.38;;
51814;SDS011;37874;53.158;6.766;2022-11-11T12:34:32;6.38;;;2.95;;
51814;SDS011;37874;53.158;6.766;2022-11-11T12:37:17;4.05;;;2.70;;
51814;SDS011;37874;53.158;6.766;2022-11-11T12:40:05;4.40;;;3.15;;
51814;SDS011;37874;53.158;6.766;2022-11-11T12:45:22;3.13;;;2.40;;
51814;SDS011;37874;53.158;6.766;2022-11-11T12:51:15;4.05;;;2.70;;
51814;SDS011;37874;53.158;6.766;2022-11-11T12:54:01;4.43;;;2.75;;
51814;SDS011;37874;53.158;6.766;2022-11-11T13:07:52;4.93;;;2.90;;
51814;SDS011;37874;53.158;6.766;2022-11-11T13:10:44;4.25;;;2.80;;
51814;SDS011;37874;53.158;6.766;2022-11-11T13:13:55;5.28;;;2.60;;
51814;SDS011;37874;53.158;6.766;2022-11-11T13:16:13;4.80;;;2.92;;
51814;SDS011;37874;53.158;6.766;2022-11-11T13:18:49;3.45;;;2.40;;
51814;SDS011;37874;53.158;6.766;2022-11-11T13:24:12;3.85;;;2.40;;
51814;SDS011;37874;53.158;6.766;2022-11-11T13:26:42;5.18;;;2.60;;
51814;SDS011;37874;53.158;6.766;2022-11-11T13:32:11;3.33;;;2.20;;
51814;SDS011;37874;53.158;6.766;2022-11-11T13:34:39;3.90;;;2.60;;
51814;SDS011;37874;53.158;6.766;2022-11-11T13:37:06;5.63;;;3.38;;
51814;SDS011;37874;53.158;6.766;2022-11-11T13:39:38;3.53;;;2.53;;
51814;SDS011;37874;53.158;6.766;2022-11-11T13:42:10;5.00;;;3.08;;
51814;SDS011;37874;53.158;6.766;2022-11-11T13:44:50;4.07;;;2.38;;
51814;SDS011;37874;53.158;6.766;2022-11-11T13:47:32;4.78;;;2.95;;
51814;SDS011;37874;53.158;6.766;2022-11-11T13:50:11;4.97;;;3.53;;
51814;SDS011;37874;53.158;6.766;2022-11-11T13:53:11;4.03;;;2.85;;
51814;SDS011;37874;53.158;6.766;2022-11-11T13:55:32;3.88;;;2.75;;
51814;SDS011;37874;53.158;6.766;2022-11-11T13:58:01;4.30;;;3.22;;
51814;SDS011;37874;53.158;6.766;2022-11-11T14:00:30;4.00;;;2.80;;
51814;SDS011;37874;53.158;6.766;2022-11-11T14:05:38;3.78;;;2.50;;
51814;SDS011;37874;53.158;6.766;2022-11-11T14:08:03;4.68;;;2.53;;
51814;SDS011;37874;53.158;6.766;2022-11-11T14:15:48;4.93;;;3.10;;
51814;SDS011;37874;53.158;6.766;2022-11-11T14:20:43;4.72;;;2.75;;
51814;SDS011;37874;53.158;6.766;2022-11-11T14:38:49;4.95;;;3.53;;
51814;SDS011;37874;53.158;6.766;2022-11-11T14:52:20;4.70;;;3.60;;
51814;SDS011;37874;53.158;6.766;2022-11-11T14:55:18;4.68;;;3.72;;
51814;SDS011;37874;53.158;6.766;2022-11-11T14:57:56;5.80;;;4.10;;
51814;SDS011;37874;53.158;6.766;2022-11-11T15:28:02;5.18;;;3.60;;
51814;SDS011;37874;53.158;6.766;2022-11-11T15:30:52;4.97;;;3.45;;
51814;SDS011;37874;53.158;6.766;2022-11-11T15:33:25;4.95;;;3.33;;
51814;SDS011;37874;53.158;6.766;2022-11-11T15:39:12;4.65;;;3.25;;
51814;SDS011;37874;53.158;6.766;2022-11-11T15:41:41;4.50;;;3.45;;
51814;SDS011;37874;53.158;6.766;2022-11-11T15:44:14;6.60;;;3.80;;
51814;SDS011;37874;53.158;6.766;2022-11-11T15:46:53;6.15;;;4.18;;
51814;SDS011;37874;53.158;6.766;2022-11-11T15:52:25;4.43;;;3.40;;
51814;SDS011;37874;53.158;6.766;2022-11-11T15:54:53;6.03;;;4.47;;
51814;SDS011;37874;53.158;6.766;2022-11-11T15:59:45;7.15;;;4.95;;
51814;SDS011;37874;53.158;6.766;2022-11-11T16:02:13;6.63;;;4.93;;
51814;SDS011;37874;53.158;6.766;2022-11-11T16:07:47;4.32;;;3.65;;
51814;SDS011;37874;53.158;6.766;2022-11-11T16:10:24;5.90;;;4.60;;
51814;SDS011;37874;53.158;6.766;2022-11-11T16:13:19;9.73;;;6.75;;
51814;SDS011;37874;53.158;6.766;2022-11-11T16:15:46;10.75;;;7.15;;
51814;SDS011;37874;53.158;6.766;2022-11-11T16:18:28;9.00;;;6.47;;
51814;SDS011;37874;53.158;6.766;2022-11-11T16:21:21;9.52;;;6.30;;
51814;SDS011;37874;53.158;6.766;2022-11-11T16:23:52;8.40;;;5.22;;
51814;SDS011;37874;53.158;6.766;2022-11-11T16:26:18;7.22;;;5.40;;
51814;SDS011;37874;53.158;6.766;2022-11-11T16:28:46;7.70;;;5.07;;
51814;SDS011;37874;53.158;6.766;2022-11-11T16:31:28;7.78;;;6.28;;
51814;SDS011;37874;53.158;6.766;2022-11-11T16:33:58;10.05;;;7.00;;
51814;SDS011;37874;53.158;6.766;2022-11-11T16:36:24;9.48;;;6.38;;
51814;SDS011;37874;53.158;6.766;2022-11-11T16:38:50;11.73;;;8.25;;
51814;SDS011;37874;53.158;6.766;2022-11-11T16:41:22;7.65;;;5.78;;
51814;SDS011;37874;53.158;6.766;2022-11-11T16:43:54;10.25;;;6.35;;
51814;SDS011;37874;53.158;6.766;2022-11-11T16:49:00;13.32;;;9.88;;
51814;SDS011;37874;53.158;6.766;2022-11-11T16:51:38;11.32;;;8.13;;
51814;SDS011;37874;53.158;6.766;2022-11-11T16:54:12;10.35;;;7.75;;
51814;SDS011;37874;53.158;6.766;2022-11-11T16:59:53;10.88;;;7.72;;
51814;SDS011;37874;53.158;6.766;2022-11-11T17:02:02;10.93;;;6.68;;
51814;SDS011;37874;53.158;6.766;2022-11-11T17:04:49;9.90;;;6.47;;
51814;SDS011;37874;53.158;6.766;2022-11-11T17:07:36;8.85;;;6.10;;
51814;SDS011;37874;53.158;6.766;2022-11-11T17:10:09;9.43;;;6.50;;
51814;SDS011;37874;53.158;6.766;2022-11-11T17:12:37;9.45;;;6.72;;
51814;SDS011;37874;53.158;6.766;2022-11-11T17:15:07;12.20;;;6.60;;
51814;SDS011;37874;53.158;6.766;2022-11-11T17:17:38;13.45;;;7.15;;
51814;SDS011;37874;53.158;6.766;2022-11-11T17:20:12;8.75;;;6.15;;
51814;SDS011;37874;53.158;6.766;2022-11-11T17:22:50;11.95;;;6.68;;
51814;SDS011;37874;53.158;6.766;2022-11-11T17:25:16;10.20;;;7.07;;
51814;SDS011;37874;53.158;6.766;2022-11-11T17:27:42;11.30;;;6.80;;
51814;SDS011;37874;53.158;6.766;2022-11-11T17:30:09;8.27;;;6.40;;
51814;SDS011;37874;53.158;6.766;2022-11-11T17:32:36;8.88;;;6.32;;
51814;SDS011;37874;53.158;6.766;2022-11-11T17:35:02;9.98;;;6.50;;
51814;SDS011;37874;53.158;6.766;2022-11-11T17:37:31;9.43;;;6.32;;
51814;SDS011;37874;53.158;6.766;2022-11-11T17:39:58;9.88;;;6.88;;
51814;SDS011;37874;53.158;6.766;2022-11-11T17:42:24;8.25;;;6.13;;
51814;SDS011;37874;53.158;6.766;2022-11-11T17:44:51;8.57;;;6.47;;
51814;SDS011;37874;53.158;6.766;2022-11-11T17:47:16;8.15;;;6.15;;
51814;SDS011;37874;53.158;6.766;2022-11-11T17:49:42;8.80;;;6.00;;
51814;SDS011;37874;53.158;6.766;2022-11-11T17:52:08;8.63;;;6.10;;
51814;SDS011;37874;53.158;6.766;2022-11-11T17:54:33;9.98;;;6.13;;
51814;SDS011;37874;53.158;6.766;2022-11-11T17:56:59;10.07;;;6.07;;
51814;SDS011;37874;53.158;6.766;2022-11-11T17:59:24;11.00;;;6.43;;
51814;SDS011;37874;53.158;6.766;2022-11-11T18:01:50;8.63;;;6.18;;
51814;SDS011;37874;53.158;6.766;2022-11-11T18:04:16;9.88;;;6.32;;
51814;SDS011;37874;53.158;6.766;2022-11-11T18:06:41;9.05;;;6.10;;
51814;SDS011;37874;53.158;6.766;2022-11-11T18:09:07;10.05;;;6.30;;
51814;SDS011;37874;53.158;6.766;2022-11-11T18:11:33;10.02;;;5.72;;